MSC Davos — A8IG3 — position and weather

sailwx.info

Track history (hours):
 
Tides and Currents Weather Stations Pressure Air Temp Water Temp Dewpoint Dewpoint Depression Visibility Wind Speed Wind Dir Waves Ship Positions

MSC Davos

Last reported at 2015-Feb-23 21:00 UTC. Time now 2015-Feb-28 07:00 UTC.
Position N 20°24' W 107°12'.

Length 210.9 m; beam 32.3 m; draft 12 m.

Type: Cargo ship. MMSI: 636090972.

Wind from 300 at 5 knots

Waves 0.5 meters (2 feet), 3 second period

Barometer 1013.0 mb
Air temperature 25.5 ° C
Visibility: greater than 10.8 NM
Dewpoint 20.9 ° C
Water temperature 24.0 ° C

Date/timePositionNaut miles runAvg speedWind from/ knotsBaromVisibWave heightAir tempDewpointWater temp
2015-Feb-23 21:00N 20°24' W 107°12'54020.0 300 / 51013.010.8 0.525.520.924.0
2015-Feb-22 18:00N 26°24' W 114°30'   320 / 101017.010.8 0.521.012.819.0
2015-Feb-20 11:28N 33°44' W 118°15'0 0.0
2015-Feb-20 07:16N 33°44' W 118°15'0 0.0
2015-Feb-20 05:10N 33°44' W 118°15'0 0.0
2015-Feb-20 04:07N 33°44' W 118°15'0 0.0
2015-Feb-19 21:28N 33°44' W 118°15'37 2.5
2015-Feb-19 06:25N 33°10' W 117°59'7 8.0
2015-Feb-19 05:32N 33°03' W 117°56'7 7.7
2015-Feb-19 04:33N 32°56' W 117°53'8 7.9
2015-Feb-19 03:34N 32°48' W 117°50'9 8.7
2015-Feb-19 02:33N 32°40' W 117°46'10 8.7
2015-Feb-19 01:21N 32°30' W 117°42'7 8.5
2015-Feb-19 00:33N 32°24' W 117°39'301 5.8
2015-Feb-16 21:00N 27°42' W 115°36'   340 / 101017.010.8 1.021.014.718.0
Track history (hours):
 
Tides and Currents Weather Stations Pressure Air Temp Water Temp Dewpoint Dewpoint Depression Visibility Wind Speed Wind Dir Waves Ship Positions

MSC Davos

Last reported at 2015-Feb-23 21:00 UTC. Time now 2015-Feb-28 07:00 UTC.
Position N 20°24' W 107°12'.

Length 210.9 m; beam 32.3 m; draft 12 m.

Type: Cargo ship. MMSI: 636090972.

Wind from 300 at 5 knots

Waves 0.5 meters (2 feet), 3 second period

Barometer 1013.0 mb
Air temperature 25.5 ° C
Visibility: greater than 10.8 NM
Dewpoint 20.9 ° C
Water temperature 24.0 ° C

Date/timePositionNaut miles runAvg speedWind from/ knotsBaromVisibWave heightAir tempDewpointWater temp
2015-Feb-23 21:00N 20°24' W 107°12'54020.0 300 / 51013.010.8 0.525.520.924.0
2015-Feb-22 18:00N 26°24' W 114°30'   320 / 101017.010.8 0.521.012.819.0
2015-Feb-20 11:28N 33°44' W 118°15'0 0.0
2015-Feb-20 07:16N 33°44' W 118°15'0 0.0
2015-Feb-20 05:10N 33°44' W 118°15'0 0.0
2015-Feb-20 04:07N 33°44' W 118°15'0 0.0
2015-Feb-19 21:28N 33°44' W 118°15'37 2.5
2015-Feb-19 06:25N 33°10' W 117°59'7 8.0
2015-Feb-19 05:32N 33°03' W 117°56'7 7.7
2015-Feb-19 04:33N 32°56' W 117°53'8 7.9
2015-Feb-19 03:34N 32°48' W 117°50'9 8.7
2015-Feb-19 02:33N 32°40' W 117°46'10 8.7
2015-Feb-19 01:21N 32°30' W 117°42'7 8.5
2015-Feb-19 00:33N 32°24' W 117°39'301 5.8
2015-Feb-16 21:00N 27°42' W 115°36'   340 / 101017.010.8 1.021.014.718.0

Dump ship's entire track history